FFT3453 KLGA-KATL
Flight info
| Callsign | FFT3453 |
|---|---|
| Flight time | 2h 6m |
| Altitude | 38000 |
| Route | WHITE Q409 CRPLR PAACK Q97 YURCK CEELY Q172 YUTEE SKWKR JJEDI3 |
| Aircraft | A320/M-SDE3FGHIRWY/LB1 |
Departure
| Time | 2026-05-06 23:17 |
|---|---|
| Airport | LaGuardia Airport (KLGA) |
Arrival
| Time | 2026-05-07 01:23 |
|---|---|
| Airport | Hartsfield Jackson Atlanta International Airport (KATL) |
| Time | Latitude | Longitude | Altitude | Speed | Heading |
|---|---|---|---|---|---|
| 2026-05-06 22:33 | 40.77381 | -73.87016 | 15 ft | 0 kts | 42° |
| 2026-05-06 23:07 | 40.77377 | -73.87022 | 14 ft | 4 kts | 41° |
| 2026-05-06 23:07 | 40.77355 | -73.87042 | 14 ft | 4 kts | 18° |
| 2026-05-06 23:08 | 40.77333 | -73.87042 | 14 ft | 3 kts | 313° |
| 2026-05-06 23:08 | 40.77331 | -73.87039 | 14 ft | 0 kts | 310° |
| 2026-05-06 23:11 | 40.77332 | -73.87040 | 14 ft | 1 kts | 310° |
| 2026-05-06 23:11 | 40.77339 | -73.87051 | 14 ft | 2 kts | 310° |
| 2026-05-06 23:11 | 40.77354 | -73.87076 | 14 ft | 5 kts | 310° |
| 2026-05-06 23:11 | 40.77387 | -73.87120 | 14 ft | 8 kts | 328° |
| 2026-05-06 23:12 | 40.77425 | -73.87113 | 14 ft | 10 kts | 28° |
| 2026-05-06 23:12 | 40.77517 | -73.87040 | 14 ft | 13 kts | 31° |
| 2026-05-06 23:12 | 40.77588 | -73.86983 | 14 ft | 9 kts | 32° |
| 2026-05-06 23:12 | 40.77613 | -73.86974 | 14 ft | 4 kts | 344° |
| 2026-05-06 23:13 | 40.77656 | -73.86996 | 14 ft | 10 kts | 2° |
| 2026-05-06 23:13 | 40.77717 | -73.87018 | 14 ft | 10 kts | 303° |
| 2026-05-06 23:13 | 40.77755 | -73.87097 | 14 ft | 11 kts | 302° |
| 2026-05-06 23:13 | 40.77799 | -73.87190 | 14 ft | 12 kts | 302° |
| 2026-05-06 23:14 | 40.77846 | -73.87288 | 14 ft | 13 kts | 302° |
| 2026-05-06 23:14 | 40.77897 | -73.87395 | 14 ft | 14 kts | 302° |
| 2026-05-06 23:14 | 40.77951 | -73.87509 | 14 ft | 14 kts | 302° |
| 2026-05-06 23:14 | 40.78005 | -73.87621 | 14 ft | 15 kts | 303° |
| 2026-05-06 23:15 | 40.78060 | -73.87733 | 14 ft | 15 kts | 302° |
| 2026-05-06 23:15 | 40.78103 | -73.87821 | 14 ft | 6 kts | 304° |
| 2026-05-06 23:15 | 40.78123 | -73.87848 | 14 ft | 6 kts | 328° |
| 2026-05-06 23:15 | 40.78162 | -73.87866 | 14 ft | 6 kts | 350° |
| 2026-05-06 23:16 | 40.78199 | -73.87851 | 14 ft | 5 kts | 41° |
| 2026-05-06 23:16 | 40.78206 | -73.87808 | 14 ft | 5 kts | 105° |
| 2026-05-06 23:16 | 40.78156 | -73.87694 | 14 ft | 42 kts | 123° |
| 2026-05-06 23:16 | 40.77856 | -73.87071 | 15 ft | 118 kts | 122° |
| 2026-05-06 23:17 | 40.77318 | -73.85927 | 142 ft | 159 kts | 123° |
| 2026-05-06 23:17 | 40.76731 | -73.84690 | 859 ft | 158 kts | 128° |
| 2026-05-06 23:17 | 40.75848 | -73.83882 | 1535 ft | 158 kts | 164° |
| 2026-05-06 23:17 | 40.74762 | -73.83613 | 2081 ft | 165 kts | 173° |
| 2026-05-06 23:18 | 40.73511 | -73.83326 | 2388 ft | 184 kts | 173° |
| 2026-05-06 23:18 | 40.72863 | -73.83135 | 2562 ft | 192 kts | 172° |
| 2026-05-06 23:18 | 40.71526 | -73.82731 | 2894 ft | 207 kts | 177° |
| 2026-05-06 23:18 | 40.70059 | -73.82788 | 3445 ft | 211 kts | 194° |
| 2026-05-06 23:19 | 40.68634 | -73.83247 | 4257 ft | 208 kts | 198° |
| 2026-05-06 23:19 | 40.67196 | -73.83815 | 5111 ft | 205 kts | 206° |
| 2026-05-06 23:19 | 40.66005 | -73.84743 | 5757 ft | 209 kts | 217° |
| 2026-05-06 23:19 | 40.64857 | -73.85954 | 6413 ft | 214 kts | 219° |
| 2026-05-06 23:20 | 40.63686 | -73.87186 | 7165 ft | 216 kts | 217° |
| 2026-05-06 23:20 | 40.62366 | -73.88221 | 7676 ft | 230 kts | 208° |
| 2026-05-06 23:20 | 40.60853 | -73.89133 | 8207 ft | 240 kts | 206° |
| 2026-05-06 23:20 | 40.59329 | -73.90016 | 8868 ft | 244 kts | 207° |
| 2026-05-06 23:21 | 40.57743 | -73.90953 | 9549 ft | 248 kts | 207° |
| 2026-05-06 23:21 | 40.56050 | -73.91973 | 10238 ft | 253 kts | 208° |
| 2026-05-06 23:21 | 40.54445 | -73.92934 | 10672 ft | 266 kts | 209° |
| 2026-05-06 23:21 | 40.52749 | -73.93966 | 10882 ft | 285 kts | 209° |
| 2026-05-06 23:22 | 40.50888 | -73.95098 | 11076 ft | 304 kts | 209° |
| 2026-05-06 23:22 | 40.48900 | -73.96295 | 11293 ft | 321 kts | 209° |
| 2026-05-06 23:22 | 40.46803 | -73.97552 | 11545 ft | 336 kts | 209° |
| 2026-05-06 23:22 | 40.44608 | -73.98856 | 11849 ft | 348 kts | 210° |
| 2026-05-06 23:23 | 40.42310 | -74.00227 | 12359 ft | 354 kts | 210° |
| 2026-05-06 23:23 | 40.40086 | -74.01554 | 12863 ft | 358 kts | 210° |
| 2026-05-06 23:23 | 40.37770 | -74.02937 | 13396 ft | 361 kts | 210° |
| 2026-05-06 23:23 | 40.35489 | -74.04308 | 13929 ft | 364 kts | 210° |
| 2026-05-06 23:24 | 40.33144 | -74.05716 | 14465 ft | 366 kts | 210° |
| 2026-05-06 23:24 | 40.30778 | -74.07142 | 14997 ft | 369 kts | 210° |
| 2026-05-06 23:24 | 40.28399 | -74.08578 | 15496 ft | 371 kts | 210° |
| 2026-05-06 23:24 | 40.26043 | -74.09982 | 15980 ft | 373 kts | 210° |
| 2026-05-06 23:25 | 40.24469 | -74.10920 | 16295 ft | 374 kts | 210° |
| 2026-05-06 23:25 | 40.21940 | -74.12434 | 16791 ft | 377 kts | 210° |
| 2026-05-06 23:25 | 40.19510 | -74.13875 | 17240 ft | 379 kts | 210° |
| 2026-05-06 23:25 | 40.17087 | -74.15309 | 17679 ft | 381 kts | 210° |
| 2026-05-06 23:26 | 40.14581 | -74.16798 | 18124 ft | 383 kts | 210° |
| 2026-05-06 23:26 | 40.12211 | -74.18215 | 18520 ft | 385 kts | 210° |
| 2026-05-06 23:26 | 40.09707 | -74.19717 | 18916 ft | 387 kts | 210° |
| 2026-05-06 23:26 | 40.07311 | -74.21143 | 19303 ft | 390 kts | 210° |
| 2026-05-06 23:27 | 40.04815 | -74.22616 | 19684 ft | 392 kts | 210° |
| 2026-05-06 23:27 | 40.02294 | -74.24109 | 20049 ft | 394 kts | 210° |
| 2026-05-06 23:27 | 39.99740 | -74.25906 | 20423 ft | 391 kts | 218° |
| 2026-05-06 23:27 | 39.97437 | -74.27990 | 20798 ft | 392 kts | 220° |
| 2026-05-06 23:28 | 39.95212 | -74.30142 | 21128 ft | 393 kts | 221° |
| 2026-05-06 23:28 | 39.92993 | -74.32329 | 21459 ft | 396 kts | 221° |
| 2026-05-06 23:28 | 39.90782 | -74.34489 | 21775 ft | 398 kts | 221° |
| 2026-05-06 23:28 | 39.88518 | -74.36658 | 21886 ft | 399 kts | 220° |
| 2026-05-06 23:29 | 39.86262 | -74.38781 | 21876 ft | 399 kts | 220° |
| 2026-05-06 23:29 | 39.83985 | -74.40913 | 21873 ft | 399 kts | 220° |
| 2026-05-06 23:29 | 39.81771 | -74.43081 | 21863 ft | 396 kts | 224° |
| 2026-05-06 23:29 | 39.79719 | -74.45596 | 21869 ft | 394 kts | 229° |
| 2026-05-06 23:30 | 39.77810 | -74.48148 | 21867 ft | 393 kts | 230° |
| 2026-05-06 23:30 | 39.75927 | -74.50716 | 21923 ft | 394 kts | 230° |
| 2026-05-06 23:30 | 39.73996 | -74.53333 | 22222 ft | 397 kts | 230° |
| 2026-05-06 23:30 | 39.72066 | -74.55913 | 22531 ft | 399 kts | 229° |
| 2026-05-06 23:31 | 39.70116 | -74.58482 | 22840 ft | 401 kts | 229° |
| 2026-05-06 23:31 | 39.68149 | -74.61058 | 23133 ft | 402 kts | 229° |
| 2026-05-06 23:31 | 39.66180 | -74.63644 | 23416 ft | 404 kts | 230° |
| 2026-05-06 23:31 | 39.64845 | -74.65408 | 23606 ft | 405 kts | 230° |
| 2026-05-06 23:32 | 39.62836 | -74.68064 | 23877 ft | 407 kts | 230° |
| 2026-05-06 23:32 | 39.60841 | -74.70702 | 24166 ft | 409 kts | 230° |
| 2026-05-06 23:32 | 39.58834 | -74.73351 | 24441 ft | 410 kts | 230° |
| 2026-05-06 23:32 | 39.56840 | -74.75978 | 24709 ft | 411 kts | 230° |
| 2026-05-06 23:33 | 39.54793 | -74.78663 | 24965 ft | 413 kts | 230° |
| 2026-05-06 23:33 | 39.52699 | -74.81417 | 25243 ft | 414 kts | 230° |
| 2026-05-06 23:33 | 39.50671 | -74.84083 | 25502 ft | 415 kts | 230° |
| 2026-05-06 23:33 | 39.48635 | -74.86749 | 25743 ft | 417 kts | 230° |
| 2026-05-06 23:34 | 39.46544 | -74.89478 | 25978 ft | 418 kts | 230° |
| 2026-05-06 23:34 | 39.44457 | -74.92203 | 26213 ft | 419 kts | 230° |
| 2026-05-06 23:34 | 39.42341 | -74.94970 | 26446 ft | 420 kts | 230° |
| 2026-05-06 23:34 | 39.40221 | -74.97744 | 26672 ft | 421 kts | 231° |
| 2026-05-06 23:35 | 39.38149 | -75.00456 | 26878 ft | 422 kts | 230° |
| 2026-05-06 23:35 | 39.35985 | -75.03282 | 27199 ft | 421 kts | 231° |
| 2026-05-06 23:35 | 39.33996 | -75.05872 | 27484 ft | 420 kts | 231° |
| 2026-05-06 23:35 | 39.31901 | -75.08597 | 27782 ft | 418 kts | 231° |
| 2026-05-06 23:36 | 39.29741 | -75.11373 | 28100 ft | 418 kts | 229° |
| 2026-05-06 23:36 | 39.27701 | -75.13820 | 28378 ft | 418 kts | 229° |
| 2026-05-06 23:36 | 39.25549 | -75.16342 | 28656 ft | 418 kts | 228° |
| 2026-05-06 23:36 | 39.23386 | -75.18843 | 28943 ft | 416 kts | 228° |
| 2026-05-06 23:37 | 39.21227 | -75.21334 | 29195 ft | 416 kts | 228° |
| 2026-05-06 23:37 | 39.19079 | -75.23820 | 29500 ft | 414 kts | 229° |
| 2026-05-06 23:37 | 39.16943 | -75.26311 | 29782 ft | 413 kts | 229° |
| 2026-05-06 23:37 | 39.14821 | -75.28801 | 30066 ft | 411 kts | 229° |
| 2026-05-06 23:38 | 39.12684 | -75.31308 | 30326 ft | 410 kts | 229° |
| 2026-05-06 23:38 | 39.10572 | -75.33780 | 30599 ft | 409 kts | 229° |
| 2026-05-06 23:38 | 39.08467 | -75.36233 | 30869 ft | 408 kts | 229° |
| 2026-05-06 23:38 | 39.06355 | -75.38677 | 31125 ft | 407 kts | 229° |
| 2026-05-06 23:39 | 39.04174 | -75.41082 | 31367 ft | 410 kts | 225° |
| 2026-05-06 23:39 | 39.01745 | -75.43068 | 31599 ft | 420 kts | 216° |
| 2026-05-06 23:39 | 38.98984 | -75.44464 | 31808 ft | 433 kts | 205° |
| 2026-05-06 23:39 | 38.95975 | -75.45156 | 32034 ft | 444 kts | 197° |
| 2026-05-06 23:40 | 38.92895 | -75.45521 | 32294 ft | 445 kts | 194° |
| 2026-05-06 23:40 | 38.89802 | -75.45816 | 32487 ft | 445 kts | 194° |
| 2026-05-06 23:40 | 38.86722 | -75.46145 | 32687 ft | 443 kts | 195° |
| 2026-05-06 23:40 | 38.83661 | -75.46550 | 32882 ft | 441 kts | 197° |
| 2026-05-06 23:41 | 38.81644 | -75.46850 | 33007 ft | 440 kts | 197° |
| 2026-05-06 23:41 | 38.78560 | -75.47325 | 33216 ft | 439 kts | 197° |
| 2026-05-06 23:41 | 38.75488 | -75.47782 | 33431 ft | 439 kts | 197° |
| 2026-05-06 23:41 | 38.72242 | -75.48230 | 33671 ft | 438 kts | 197° |
| 2026-05-06 23:42 | 38.69263 | -75.48621 | 33892 ft | 436 kts | 196° |
| 2026-05-06 23:42 | 38.66206 | -75.49016 | 34077 ft | 435 kts | 197° |
| 2026-05-06 23:42 | 38.63190 | -75.49418 | 34217 ft | 436 kts | 197° |
| 2026-05-06 23:42 | 38.60183 | -75.49831 | 34351 ft | 435 kts | 197° |
| 2026-05-06 23:43 | 38.57277 | -75.50236 | 34463 ft | 436 kts | 197° |
| 2026-05-06 23:43 | 38.53977 | -75.50688 | 34623 ft | 436 kts | 197° |
| 2026-05-06 23:43 | 38.50935 | -75.51101 | 34768 ft | 435 kts | 197° |
| 2026-05-06 23:44 | 38.44851 | -75.51925 | 34960 ft | 437 kts | 197° |
| 2026-05-06 23:44 | 38.38831 | -75.52733 | 35153 ft | 438 kts | 197° |
| 2026-05-06 23:44 | 38.35759 | -75.53284 | 35262 ft | 429 kts | 203° |
| 2026-05-06 23:45 | 38.32974 | -75.54379 | 35300 ft | 414 kts | 214° |
| 2026-05-06 23:45 | 38.30455 | -75.56117 | 35392 ft | 401 kts | 223° |
| 2026-05-06 23:45 | 38.28162 | -75.58109 | 35519 ft | 397 kts | 225° |
| 2026-05-06 23:46 | 38.23681 | -75.62217 | 35704 ft | 397 kts | 225° |
| 2026-05-06 23:46 | 38.19086 | -75.66245 | 35878 ft | 399 kts | 224° |
| 2026-05-06 23:47 | 38.14482 | -75.70184 | 36036 ft | 399 kts | 224° |
| 2026-05-06 23:47 | 38.09909 | -75.74163 | 36218 ft | 398 kts | 225° |
| 2026-05-06 23:48 | 38.05268 | -75.78194 | 36340 ft | 399 kts | 225° |
| 2026-05-06 23:48 | 38.00619 | -75.82212 | 36460 ft | 399 kts | 225° |
| 2026-05-06 23:49 | 37.96035 | -75.86159 | 36687 ft | 397 kts | 225° |
| 2026-05-06 23:49 | 37.91463 | -75.90115 | 36726 ft | 399 kts | 225° |
| 2026-05-06 23:50 | 37.87619 | -75.93420 | 36857 ft | 398 kts | 225° |
| 2026-05-06 23:50 | 37.80713 | -75.99353 | 36897 ft | 401 kts | 225° |
| 2026-05-06 23:51 | 37.78409 | -76.01335 | 37018 ft | 399 kts | 225° |
| 2026-05-06 23:51 | 37.76120 | -76.03292 | 37251 ft | 394 kts | 225° |
| 2026-05-06 23:51 | 37.73862 | -76.05216 | 37491 ft | 390 kts | 226° |
| 2026-05-06 23:51 | 37.71598 | -76.07150 | 37723 ft | 384 kts | 227° |
| 2026-05-06 23:52 | 37.69401 | -76.09032 | 37911 ft | 381 kts | 227° |
| 2026-05-06 23:52 | 37.67211 | -76.10919 | 37901 ft | 382 kts | 227° |
| 2026-05-06 23:52 | 37.62796 | -76.14714 | 37913 ft | 384 kts | 227° |
| 2026-05-06 23:53 | 37.58159 | -76.18271 | 37903 ft | 396 kts | 221° |
| 2026-05-06 23:53 | 37.53255 | -76.21498 | 37902 ft | 399 kts | 220° |
| 2026-05-06 23:54 | 37.48321 | -76.24737 | 37905 ft | 400 kts | 221° |
| 2026-05-06 23:54 | 37.43324 | -76.28074 | 37915 ft | 401 kts | 221° |
| 2026-05-06 23:55 | 37.38356 | -76.31377 | 37938 ft | 402 kts | 221° |
| 2026-05-06 23:55 | 37.33400 | -76.34641 | 37923 ft | 404 kts | 221° |
| 2026-05-06 23:56 | 37.28381 | -76.37968 | 37918 ft | 405 kts | 221° |
| 2026-05-06 23:56 | 37.23322 | -76.41332 | 37918 ft | 407 kts | 221° |
| 2026-05-06 23:57 | 37.18762 | -76.44324 | 37887 ft | 410 kts | 220° |
| 2026-05-06 23:57 | 37.13755 | -76.47616 | 37872 ft | 411 kts | 220° |
| 2026-05-06 23:58 | 37.08675 | -76.50939 | 37862 ft | 413 kts | 220° |
| 2026-05-06 23:58 | 37.03509 | -76.54330 | 37867 ft | 414 kts | 220° |
| 2026-05-06 23:59 | 36.98406 | -76.57687 | 37869 ft | 415 kts | 220° |
| 2026-05-06 23:59 | 36.93252 | -76.61062 | 37867 ft | 416 kts | 220° |
| 2026-05-07 00:00 | 36.88056 | -76.64456 | 37874 ft | 417 kts | 220° |
| 2026-05-07 00:00 | 36.83799 | -76.67231 | 37878 ft | 418 kts | 220° |
| 2026-05-07 00:01 | 36.78601 | -76.70612 | 37892 ft | 418 kts | 220° |
| 2026-05-07 00:01 | 36.73409 | -76.73989 | 37886 ft | 420 kts | 220° |
| 2026-05-07 00:02 | 36.68173 | -76.77371 | 37893 ft | 420 kts | 220° |
| 2026-05-07 00:02 | 36.62989 | -76.80751 | 37893 ft | 421 kts | 220° |
| 2026-05-07 00:03 | 36.57787 | -76.84118 | 37890 ft | 422 kts | 220° |
| 2026-05-07 00:03 | 36.52544 | -76.87506 | 37923 ft | 421 kts | 220° |
| 2026-05-07 00:04 | 36.47333 | -76.90879 | 37980 ft | 421 kts | 220° |
| 2026-05-07 00:04 | 36.42148 | -76.94220 | 37979 ft | 422 kts | 220° |
| 2026-05-07 00:05 | 36.36899 | -76.97594 | 37983 ft | 422 kts | 220° |
| 2026-05-07 00:05 | 36.31651 | -77.00963 | 38014 ft | 422 kts | 220° |
| 2026-05-07 00:06 | 36.26429 | -77.04307 | 37985 ft | 422 kts | 220° |
| 2026-05-07 00:06 | 36.21214 | -77.07663 | 37985 ft | 423 kts | 220° |
| 2026-05-07 00:07 | 36.15893 | -77.11065 | 37990 ft | 423 kts | 220° |
| 2026-05-07 00:07 | 36.10719 | -77.14367 | 37986 ft | 423 kts | 220° |
| 2026-05-07 00:08 | 36.05487 | -77.17711 | 37984 ft | 423 kts | 220° |
| 2026-05-07 00:08 | 36.00183 | -77.21076 | 37985 ft | 424 kts | 220° |
| 2026-05-07 00:09 | 35.94965 | -77.24391 | 37980 ft | 424 kts | 220° |
| 2026-05-07 00:09 | 35.90103 | -77.28234 | 37962 ft | 409 kts | 230° |
| 2026-05-07 00:10 | 35.85650 | -77.32614 | 37925 ft | 404 kts | 231° |
| 2026-05-07 00:10 | 35.81262 | -77.36918 | 37897 ft | 403 kts | 230° |
| 2026-05-07 00:11 | 35.76789 | -77.41192 | 37899 ft | 402 kts | 230° |
| 2026-05-07 00:11 | 35.72365 | -77.45448 | 37888 ft | 403 kts | 230° |
| 2026-05-07 00:12 | 35.67801 | -77.49847 | 37887 ft | 405 kts | 230° |
| 2026-05-07 00:12 | 35.63426 | -77.54035 | 37899 ft | 406 kts | 230° |
| 2026-05-07 00:13 | 35.58904 | -77.58359 | 37891 ft | 408 kts | 230° |
| 2026-05-07 00:13 | 35.54393 | -77.62680 | 37908 ft | 408 kts | 230° |
| 2026-05-07 00:14 | 35.49887 | -77.66986 | 37927 ft | 408 kts | 230° |
| 2026-05-07 00:14 | 35.46144 | -77.70544 | 37972 ft | 408 kts | 230° |
| 2026-05-07 00:15 | 35.41634 | -77.74842 | 37992 ft | 408 kts | 230° |
| 2026-05-07 00:15 | 35.37116 | -77.79142 | 37987 ft | 409 kts | 230° |
| 2026-05-07 00:16 | 35.32608 | -77.83421 | 37993 ft | 410 kts | 230° |
| 2026-05-07 00:16 | 35.28094 | -77.87700 | 38000 ft | 411 kts | 230° |
| 2026-05-07 00:17 | 35.23558 | -77.91994 | 37996 ft | 412 kts | 230° |
| 2026-05-07 00:17 | 35.18995 | -77.96301 | 37988 ft | 412 kts | 230° |
| 2026-05-07 00:18 | 35.14453 | -78.00603 | 37971 ft | 414 kts | 230° |
| 2026-05-07 00:18 | 35.09887 | -78.04901 | 37977 ft | 414 kts | 230° |
| 2026-05-07 00:19 | 35.05333 | -78.09169 | 38032 ft | 411 kts | 230° |
| 2026-05-07 00:19 | 35.00774 | -78.13465 | 38006 ft | 411 kts | 230° |
| 2026-05-07 00:20 | 34.96215 | -78.17742 | 37955 ft | 411 kts | 229° |
| 2026-05-07 00:20 | 34.91686 | -78.21983 | 37943 ft | 411 kts | 230° |
| 2026-05-07 00:21 | 34.87128 | -78.26263 | 37946 ft | 412 kts | 230° |
| 2026-05-07 00:21 | 34.82523 | -78.30582 | 37942 ft | 414 kts | 230° |
| 2026-05-07 00:22 | 34.77978 | -78.34800 | 37941 ft | 416 kts | 229° |
| 2026-05-07 00:22 | 34.73367 | -78.39086 | 37936 ft | 417 kts | 230° |
| 2026-05-07 00:23 | 34.68769 | -78.43386 | 37936 ft | 418 kts | 230° |
| 2026-05-07 00:23 | 34.63953 | -78.47854 | 37936 ft | 420 kts | 230° |
| 2026-05-07 00:24 | 34.59336 | -78.52140 | 37946 ft | 421 kts | 230° |
| 2026-05-07 00:24 | 34.54680 | -78.56442 | 38028 ft | 419 kts | 229° |
| 2026-05-07 00:25 | 34.50039 | -78.60743 | 38035 ft | 420 kts | 230° |
| 2026-05-07 00:25 | 34.45350 | -78.65083 | 38029 ft | 421 kts | 229° |
| 2026-05-07 00:26 | 34.40677 | -78.69378 | 38041 ft | 423 kts | 229° |
| 2026-05-07 00:26 | 34.35764 | -78.73543 | 38033 ft | 419 kts | 226° |
| 2026-05-07 00:27 | 34.31041 | -78.77464 | 38024 ft | 410 kts | 227° |
| 2026-05-07 00:27 | 34.26347 | -78.81373 | 38026 ft | 409 kts | 226° |
| 2026-05-07 00:28 | 34.22155 | -78.85739 | 38016 ft | 386 kts | 241° |
| 2026-05-07 00:28 | 34.20684 | -78.88372 | 38016 ft | 373 kts | 251° |
| 2026-05-07 00:28 | 34.19700 | -78.91220 | 38025 ft | 363 kts | 260° |
| 2026-05-07 00:29 | 34.19074 | -78.97155 | 38045 ft | 354 kts | 275° |
| 2026-05-07 00:30 | 34.19716 | -79.08045 | 38045 ft | 355 kts | 275° |
| 2026-05-07 00:30 | 34.19978 | -79.13996 | 38040 ft | 355 kts | 275° |
| 2026-05-07 00:31 | 34.20255 | -79.19966 | 38038 ft | 353 kts | 275° |
| 2026-05-07 00:31 | 34.20537 | -79.25870 | 37992 ft | 351 kts | 275° |
| 2026-05-07 00:32 | 34.20810 | -79.31807 | 37941 ft | 351 kts | 275° |
| 2026-05-07 00:32 | 34.21080 | -79.37692 | 37954 ft | 351 kts | 275° |
| 2026-05-07 00:33 | 34.21346 | -79.43583 | 37947 ft | 352 kts | 275° |
| 2026-05-07 00:33 | 34.21078 | -79.49510 | 37942 ft | 357 kts | 265° |
| 2026-05-07 00:34 | 34.20081 | -79.55454 | 37941 ft | 360 kts | 263° |
| 2026-05-07 00:34 | 34.19067 | -79.61388 | 37931 ft | 360 kts | 264° |
| 2026-05-07 00:35 | 34.18129 | -79.67309 | 38005 ft | 359 kts | 264° |
| 2026-05-07 00:35 | 34.17164 | -79.73255 | 37958 ft | 362 kts | 264° |
| 2026-05-07 00:36 | 34.16176 | -79.79282 | 37929 ft | 365 kts | 264° |
| 2026-05-07 00:36 | 34.15177 | -79.85393 | 37888 ft | 365 kts | 263° |
| 2026-05-07 00:37 | 34.14164 | -79.91530 | 37946 ft | 364 kts | 264° |
| 2026-05-07 00:37 | 34.13169 | -79.97526 | 38024 ft | 362 kts | 263° |
| 2026-05-07 00:38 | 34.12194 | -80.03501 | 38021 ft | 360 kts | 263° |
| 2026-05-07 00:38 | 34.11221 | -80.09421 | 37994 ft | 360 kts | 263° |
| 2026-05-07 00:39 | 34.10223 | -80.15335 | 38019 ft | 358 kts | 263° |
| 2026-05-07 00:39 | 34.09240 | -80.21248 | 37956 ft | 357 kts | 263° |
| 2026-05-07 00:40 | 34.08255 | -80.27141 | 37938 ft | 359 kts | 263° |
| 2026-05-07 00:40 | 34.07249 | -80.33057 | 37961 ft | 360 kts | 263° |
| 2026-05-07 00:41 | 34.06261 | -80.38985 | 37958 ft | 362 kts | 263° |
| 2026-05-07 00:41 | 34.05252 | -80.44977 | 37929 ft | 363 kts | 263° |
| 2026-05-07 00:42 | 34.04247 | -80.50907 | 37914 ft | 360 kts | 263° |
| 2026-05-07 00:42 | 34.03396 | -80.55894 | 37905 ft | 358 kts | 263° |
| 2026-05-07 00:43 | 34.02398 | -80.61936 | 37904 ft | 357 kts | 263° |
| 2026-05-07 00:43 | 34.01371 | -80.67807 | 37885 ft | 358 kts | 262° |
| 2026-05-07 00:44 | 34.00355 | -80.73684 | 37915 ft | 359 kts | 263° |
| 2026-05-07 00:44 | 33.99032 | -80.79507 | 37928 ft | 362 kts | 258° |
| 2026-05-07 00:45 | 33.97505 | -80.85299 | 37902 ft | 364 kts | 258° |
| 2026-05-07 00:45 | 33.95974 | -80.91166 | 37909 ft | 365 kts | 258° |
| 2026-05-07 00:46 | 33.94461 | -80.97053 | 37912 ft | 366 kts | 258° |
| 2026-05-07 00:46 | 33.92932 | -81.02924 | 37914 ft | 368 kts | 258° |
| 2026-05-07 00:47 | 33.91398 | -81.08797 | 37984 ft | 367 kts | 258° |
| 2026-05-07 00:47 | 33.89861 | -81.14667 | 37996 ft | 368 kts | 258° |
| 2026-05-07 00:48 | 33.88293 | -81.20643 | 37997 ft | 365 kts | 258° |
| 2026-05-07 00:48 | 33.86777 | -81.26445 | 37983 ft | 362 kts | 258° |
| 2026-05-07 00:49 | 33.85249 | -81.32246 | 37947 ft | 360 kts | 258° |
| 2026-05-07 00:49 | 33.83750 | -81.37949 | 37919 ft | 356 kts | 258° |
| 2026-05-07 00:50 | 33.82263 | -81.43588 | 37653 ft | 352 kts | 258° |
| 2026-05-07 00:50 | 33.81521 | -81.46402 | 37405 ft | 354 kts | 257° |
| 2026-05-07 00:50 | 33.80777 | -81.49228 | 37174 ft | 356 kts | 257° |
| 2026-05-07 00:51 | 33.80012 | -81.52110 | 36941 ft | 358 kts | 257° |
| 2026-05-07 00:51 | 33.79161 | -81.54944 | 36692 ft | 363 kts | 252° |
| 2026-05-07 00:51 | 33.77967 | -81.57640 | 36445 ft | 372 kts | 245° |
| 2026-05-07 00:51 | 33.76495 | -81.60257 | 36201 ft | 376 kts | 243° |
| 2026-05-07 00:52 | 33.74960 | -81.62820 | 35974 ft | 378 kts | 242° |
| 2026-05-07 00:52 | 33.73410 | -81.65386 | 35972 ft | 380 kts | 242° |
| 2026-05-07 00:52 | 33.70304 | -81.70692 | 35993 ft | 385 kts | 243° |
| 2026-05-07 00:53 | 33.67195 | -81.76108 | 35998 ft | 387 kts | 243° |
| 2026-05-07 00:53 | 33.64581 | -81.80615 | 35999 ft | 386 kts | 242° |
| 2026-05-07 00:54 | 33.61508 | -81.85948 | 35994 ft | 384 kts | 245° |
| 2026-05-07 00:54 | 33.59373 | -81.91708 | 35997 ft | 375 kts | 256° |
| 2026-05-07 00:55 | 33.57724 | -81.97588 | 35623 ft | 369 kts | 256° |
| 2026-05-07 00:55 | 33.56877 | -82.00535 | 34927 ft | 369 kts | 255° |
| 2026-05-07 00:55 | 33.56016 | -82.03442 | 34327 ft | 371 kts | 255° |
| 2026-05-07 00:56 | 33.55141 | -82.06360 | 34053 ft | 375 kts | 255° |
| 2026-05-07 00:56 | 33.54255 | -82.09310 | 33809 ft | 378 kts | 255° |
| 2026-05-07 00:56 | 33.53373 | -82.12258 | 33566 ft | 380 kts | 255° |
| 2026-05-07 00:56 | 33.52431 | -82.15397 | 33278 ft | 381 kts | 255° |
| 2026-05-07 00:57 | 33.51534 | -82.18404 | 32955 ft | 374 kts | 255° |
| 2026-05-07 00:57 | 33.50669 | -82.21305 | 32631 ft | 367 kts | 255° |
| 2026-05-07 00:57 | 33.49811 | -82.24183 | 32304 ft | 367 kts | 255° |
| 2026-05-07 00:57 | 33.48954 | -82.27059 | 31963 ft | 367 kts | 255° |
| 2026-05-07 00:58 | 33.48093 | -82.29940 | 31613 ft | 367 kts | 255° |
| 2026-05-07 00:58 | 33.47224 | -82.32825 | 31258 ft | 368 kts | 255° |
| 2026-05-07 00:58 | 33.46343 | -82.35752 | 30892 ft | 369 kts | 255° |
| 2026-05-07 00:58 | 33.45471 | -82.38650 | 30524 ft | 371 kts | 255° |
| 2026-05-07 00:59 | 33.43722 | -82.44478 | 29773 ft | 373 kts | 255° |
| 2026-05-07 00:59 | 33.42841 | -82.47409 | 29390 ft | 375 kts | 255° |
| 2026-05-07 00:59 | 33.41943 | -82.50386 | 28998 ft | 376 kts | 255° |
| 2026-05-07 01:00 | 33.41050 | -82.53336 | 28605 ft | 378 kts | 254° |
| 2026-05-07 01:00 | 33.40153 | -82.56298 | 28208 ft | 380 kts | 254° |
| 2026-05-07 01:00 | 33.39252 | -82.59279 | 27807 ft | 381 kts | 254° |
| 2026-05-07 01:00 | 33.38350 | -82.62272 | 27400 ft | 383 kts | 254° |
| 2026-05-07 01:01 | 33.37441 | -82.65279 | 26995 ft | 385 kts | 254° |
| 2026-05-07 01:01 | 33.36525 | -82.68299 | 26578 ft | 387 kts | 254° |
| 2026-05-07 01:01 | 33.35604 | -82.71322 | 26158 ft | 388 kts | 253° |
| 2026-05-07 01:01 | 33.34676 | -82.74360 | 25734 ft | 390 kts | 253° |
| 2026-05-07 01:02 | 33.33748 | -82.77415 | 25308 ft | 392 kts | 253° |
| 2026-05-07 01:02 | 33.32813 | -82.80488 | 24877 ft | 394 kts | 253° |
| 2026-05-07 01:02 | 33.31860 | -82.83603 | 24439 ft | 395 kts | 253° |
| 2026-05-07 01:02 | 33.30947 | -82.86706 | 23999 ft | 396 kts | 255° |
| 2026-05-07 01:03 | 33.30320 | -82.89916 | 23562 ft | 396 kts | 262° |
| 2026-05-07 01:03 | 33.29899 | -82.93211 | 23116 ft | 395 kts | 263° |
| 2026-05-07 01:03 | 33.29543 | -82.96454 | 22674 ft | 392 kts | 263° |
| 2026-05-07 01:03 | 33.29196 | -82.99674 | 22236 ft | 390 kts | 263° |
| 2026-05-07 01:04 | 33.28828 | -83.02917 | 21790 ft | 388 kts | 263° |
| 2026-05-07 01:04 | 33.28446 | -83.06087 | 21357 ft | 386 kts | 262° |
| 2026-05-07 01:04 | 33.28037 | -83.09370 | 20906 ft | 384 kts | 262° |
| 2026-05-07 01:04 | 33.27649 | -83.12520 | 20474 ft | 382 kts | 262° |
| 2026-05-07 01:05 | 33.27265 | -83.15670 | 20034 ft | 380 kts | 262° |
| 2026-05-07 01:05 | 33.26887 | -83.18808 | 19595 ft | 378 kts | 262° |
| 2026-05-07 01:05 | 33.26519 | -83.21901 | 19229 ft | 372 kts | 262° |
| 2026-05-07 01:05 | 33.26155 | -83.24895 | 19043 ft | 356 kts | 262° |
| 2026-05-07 01:06 | 33.25805 | -83.27764 | 18891 ft | 341 kts | 262° |
| 2026-05-07 01:06 | 33.25469 | -83.30515 | 18749 ft | 327 kts | 262° |
| 2026-05-07 01:06 | 33.25146 | -83.33159 | 18446 ft | 319 kts | 262° |
| 2026-05-07 01:06 | 33.24826 | -83.35779 | 17835 ft | 319 kts | 262° |
| 2026-05-07 01:07 | 33.24505 | -83.38419 | 17185 ft | 322 kts | 262° |
| 2026-05-07 01:07 | 33.24177 | -83.41124 | 16880 ft | 340 kts | 262° |
| 2026-05-07 01:07 | 33.23831 | -83.43926 | 16807 ft | 338 kts | 262° |
| 2026-05-07 01:07 | 33.23600 | -83.45780 | 16738 ft | 330 kts | 262° |
| 2026-05-07 01:08 | 33.23267 | -83.48438 | 16596 ft | 317 kts | 262° |
| 2026-05-07 01:08 | 33.22946 | -83.51007 | 16244 ft | 311 kts | 262° |
| 2026-05-07 01:08 | 33.22630 | -83.53558 | 15601 ft | 314 kts | 262° |
| 2026-05-07 01:08 | 33.22305 | -83.56162 | 15077 ft | 313 kts | 261° |
| 2026-05-07 01:09 | 33.21979 | -83.58794 | 14600 ft | 311 kts | 262° |
| 2026-05-07 01:09 | 33.21665 | -83.61345 | 14122 ft | 309 kts | 261° |
| 2026-05-07 01:09 | 33.21347 | -83.63875 | 13637 ft | 308 kts | 261° |
| 2026-05-07 01:09 | 33.21027 | -83.66401 | 13153 ft | 306 kts | 261° |
| 2026-05-07 01:10 | 33.20707 | -83.68902 | 12727 ft | 303 kts | 261° |
| 2026-05-07 01:10 | 33.20396 | -83.71355 | 12509 ft | 290 kts | 261° |
| 2026-05-07 01:10 | 33.20103 | -83.73671 | 12320 ft | 275 kts | 261° |
| 2026-05-07 01:10 | 33.19822 | -83.75881 | 12131 ft | 263 kts | 261° |
| 2026-05-07 01:11 | 33.19550 | -83.78061 | 11756 ft | 262 kts | 261° |
| 2026-05-07 01:11 | 33.19318 | -83.80215 | 11341 ft | 262 kts | 265° |
| 2026-05-07 01:11 | 33.19538 | -83.82386 | 10906 ft | 269 kts | 285° |
| 2026-05-07 01:11 | 33.20522 | -83.84329 | 10514 ft | 280 kts | 306° |
| 2026-05-07 01:12 | 33.21917 | -83.85966 | 10205 ft | 281 kts | 311° |
| 2026-05-07 01:12 | 33.23385 | -83.87551 | 9871 ft | 287 kts | 311° |
| 2026-05-07 01:12 | 33.24862 | -83.89202 | 9508 ft | 285 kts | 310° |
| 2026-05-07 01:12 | 33.25884 | -83.90398 | 9268 ft | 282 kts | 309° |
| 2026-05-07 01:13 | 33.27273 | -83.92053 | 8815 ft | 283 kts | 311° |
| 2026-05-07 01:13 | 33.28832 | -83.93523 | 8367 ft | 287 kts | 319° |
| 2026-05-07 01:13 | 33.30496 | -83.94835 | 7979 ft | 285 kts | 321° |
| 2026-05-07 01:13 | 33.32178 | -83.96117 | 7545 ft | 284 kts | 321° |
| 2026-05-07 01:14 | 33.33833 | -83.97414 | 7112 ft | 282 kts | 320° |
| 2026-05-07 01:14 | 33.35457 | -83.98741 | 6658 ft | 281 kts | 319° |
| 2026-05-07 01:14 | 33.37052 | -84.00064 | 6249 ft | 279 kts | 319° |
| 2026-05-07 01:14 | 33.38630 | -84.01360 | 5843 ft | 277 kts | 319° |
| 2026-05-07 01:15 | 33.40263 | -84.02689 | 5397 ft | 276 kts | 320° |
| 2026-05-07 01:15 | 33.41836 | -84.03963 | 5071 ft | 275 kts | 320° |
| 2026-05-07 01:15 | 33.43422 | -84.05243 | 5005 ft | 275 kts | 320° |
| 2026-05-07 01:15 | 33.44986 | -84.06525 | 4997 ft | 267 kts | 320° |
| 2026-05-07 01:16 | 33.46505 | -84.07776 | 4994 ft | 265 kts | 320° |
| 2026-05-07 01:16 | 33.48049 | -84.09042 | 4998 ft | 257 kts | 320° |
| 2026-05-07 01:16 | 33.49473 | -84.10203 | 4968 ft | 249 kts | 320° |
| 2026-05-07 01:16 | 33.50879 | -84.11346 | 4666 ft | 245 kts | 319° |
| 2026-05-07 01:17 | 33.52301 | -84.12510 | 4197 ft | 249 kts | 320° |
| 2026-05-07 01:17 | 33.53748 | -84.13694 | 3871 ft | 246 kts | 320° |
| 2026-05-07 01:17 | 33.55029 | -84.14745 | 3557 ft | 244 kts | 321° |
| 2026-05-07 01:17 | 33.56434 | -84.15900 | 3153 ft | 248 kts | 321° |
| 2026-05-07 01:18 | 33.57846 | -84.17053 | 3014 ft | 238 kts | 321° |
| 2026-05-07 01:18 | 33.59179 | -84.18149 | 3009 ft | 228 kts | 321° |
| 2026-05-07 01:18 | 33.60493 | -84.19232 | 3011 ft | 227 kts | 321° |
| 2026-05-07 01:18 | 33.61770 | -84.20281 | 2993 ft | 214 kts | 320° |
| 2026-05-07 01:19 | 33.62842 | -84.21437 | 2975 ft | 199 kts | 299° |
| 2026-05-07 01:19 | 33.63270 | -84.22923 | 3042 ft | 185 kts | 269° |
| 2026-05-07 01:19 | 33.63196 | -84.24434 | 3023 ft | 178 kts | 257° |
| 2026-05-07 01:19 | 33.63094 | -84.25899 | 3029 ft | 179 kts | 268° |
| 2026-05-07 01:20 | 33.63156 | -84.27364 | 3042 ft | 169 kts | 269° |
| 2026-05-07 01:20 | 33.63190 | -84.28747 | 3027 ft | 158 kts | 266° |
| 2026-05-07 01:20 | 33.63193 | -84.30052 | 2961 ft | 149 kts | 265° |
| 2026-05-07 01:20 | 33.63184 | -84.31245 | 2771 ft | 146 kts | 265° |
| 2026-05-07 01:21 | 33.63185 | -84.32461 | 2589 ft | 146 kts | 266° |
| 2026-05-07 01:21 | 33.63184 | -84.33677 | 2411 ft | 146 kts | 266° |
| 2026-05-07 01:21 | 33.63184 | -84.34888 | 2198 ft | 144 kts | 268° |
| 2026-05-07 01:21 | 33.63182 | -84.36095 | 2001 ft | 143 kts | 268° |
| 2026-05-07 01:22 | 33.63174 | -84.37274 | 1805 ft | 143 kts | 268° |
| 2026-05-07 01:22 | 33.63170 | -84.38471 | 1630 ft | 142 kts | 268° |
| 2026-05-07 01:22 | 33.63172 | -84.39660 | 1432 ft | 142 kts | 268° |
| 2026-05-07 01:22 | 33.63179 | -84.40836 | 1242 ft | 140 kts | 269° |
| 2026-05-07 01:23 | 33.63185 | -84.42014 | 1066 ft | 140 kts | 268° |
| 2026-05-07 01:23 | 33.63180 | -84.43086 | 1040 ft | 105 kts | 269° |
| 2026-05-07 01:23 | 33.63179 | -84.43691 | 1040 ft | 47 kts | 268° |
| 2026-05-07 01:23 | 33.63182 | -84.43954 | 1040 ft | 24 kts | 270° |
| 2026-05-07 01:24 | 33.63223 | -84.44151 | 1040 ft | 24 kts | 291° |
| 2026-05-07 01:24 | 33.63263 | -84.44249 | 1040 ft | 2 kts | 303° |
| 2026-05-07 01:24 | 33.63267 | -84.44256 | 1040 ft | 2 kts | 303° |
| 2026-05-07 01:24 | 33.63290 | -84.44276 | 1040 ft | 6 kts | 12° |
| 2026-05-07 01:25 | 33.63346 | -84.44246 | 1040 ft | 11 kts | 34° |
| 2026-05-07 01:25 | 33.63429 | -84.44193 | 1040 ft | 16 kts | 2° |
| 2026-05-07 01:25 | 33.63544 | -84.44199 | 1040 ft | 17 kts | 1° |
| 2026-05-07 01:25 | 33.63645 | -84.44188 | 1040 ft | 12 kts | 34° |
| 2026-05-07 01:26 | 33.63665 | -84.44103 | 1040 ft | 11 kts | 90° |
| 2026-05-07 01:26 | 33.63665 | -84.44003 | 1040 ft | 11 kts | 90° |
| 2026-05-07 01:26 | 33.63665 | -84.43913 | 1040 ft | 11 kts | 89° |
| 2026-05-07 01:26 | 33.63665 | -84.43821 | 1040 ft | 11 kts | 89° |
| 2026-05-07 01:27 | 33.63666 | -84.43727 | 1040 ft | 11 kts | 90° |
| 2026-05-07 01:27 | 33.63666 | -84.43633 | 1040 ft | 11 kts | 90° |
| 2026-05-07 01:27 | 33.63665 | -84.43533 | 1040 ft | 13 kts | 90° |
| 2026-05-07 01:27 | 33.63665 | -84.43427 | 1040 ft | 15 kts | 90° |
| 2026-05-07 01:28 | 33.63665 | -84.43288 | 1040 ft | 18 kts | 90° |
| 2026-05-07 01:28 | 33.63664 | -84.43136 | 1040 ft | 18 kts | 90° |
| 2026-05-07 01:28 | 33.63664 | -84.42977 | 1040 ft | 19 kts | 89° |
| 2026-05-07 01:28 | 33.63665 | -84.42826 | 1040 ft | 16 kts | 91° |
| 2026-05-07 01:29 | 33.63697 | -84.42739 | 1040 ft | 11 kts | 14° |
| 2026-05-07 01:29 | 33.63767 | -84.42723 | 1040 ft | 9 kts | 33° |
| 2026-05-07 01:29 | 33.63780 | -84.42660 | 1040 ft | 7 kts | 89° |
| 2026-05-07 01:29 | 33.63781 | -84.42623 | 1040 ft | 2 kts | 89° |
| 2026-05-07 01:30 | 33.63781 | -84.42619 | 1040 ft | 0 kts | 89° |